sensor_id;sensor_type;location;lat;lon;timestamp;temperature;humidity
1626;DHT22;806;48.770;9.156;2023-03-01T00:02:20;1.70;99.90
1626;DHT22;806;48.770;9.156;2023-03-01T00:04:47;1.60;99.90
1626;DHT22;806;48.770;9.156;2023-03-01T00:07:14;1.50;99.90
1626;DHT22;806;48.770;9.156;2023-03-01T00:09:43;1.50;99.90
1626;DHT22;806;48.770;9.156;2023-03-01T00:12:11;1.40;99.90
1626;DHT22;806;48.770;9.156;2023-03-01T00:14:38;1.40;99.90
1626;DHT22;806;48.770;9.156;2023-03-01T00:17:06;1.30;99.90
1626;DHT22;806;48.770;9.156;2023-03-01T00:19:33;1.30;99.90
1626;DHT22;806;48.770;9.156;2023-03-01T00:22:00;1.30;99.90
1626;DHT22;806;48.770;9.156;2023-03-01T00:24:27;1.30;99.90
1626;DHT22;806;48.770;9.156;2023-03-01T00:26:56;1.30;99.90
1626;DHT22;806;48.770;9.156;2023-03-01T00:29:23;1.30;99.90
1626;DHT22;806;48.770;9.156;2023-03-01T00:31:51;1.30;99.90
1626;DHT22;806;48.770;9.156;2023-03-01T00:34:18;1.40;99.90
1626;DHT22;806;48.770;9.156;2023-03-01T00:36:45;1.50;99.90
1626;DHT22;806;48.770;9.156;2023-03-01T00:39:14;1.50;99.90
1626;DHT22;806;48.770;9.156;2023-03-01T00:41:42;1.30;99.90
1626;DHT22;806;48.770;9.156;2023-03-01T00:44:11;1.30;99.90
1626;DHT22;806;48.770;9.156;2023-03-01T00:46:38;1.10;99.90
1626;DHT22;806;48.770;9.156;2023-03-01T00:49:06;1.00;99.90
1626;DHT22;806;48.770;9.156;2023-03-01T00:51:33;1.00;99.90
1626;DHT22;806;48.770;9.156;2023-03-01T00:54:01;1.20;99.90
1626;DHT22;806;48.770;9.156;2023-03-01T00:56:29;1.20;99.90
1626;DHT22;806;48.770;9.156;2023-03-01T00:58:56;1.10;99.90
1626;DHT22;806;48.770;9.156;2023-03-01T01:01:26;1.10;99.90
1626;DHT22;806;48.770;9.156;2023-03-01T01:03:57;1.10;99.90
1626;DHT22;806;48.770;9.156;2023-03-01T01:06:26;0.90;99.90
1626;DHT22;806;48.770;9.156;2023-03-01T01:08:54;0.90;99.90
1626;DHT22;806;48.770;9.156;2023-03-01T01:11:23;1.00;99.90
1626;DHT22;806;48.770;9.156;2023-03-01T01:13:51;1.00;99.90
1626;DHT22;806;48.770;9.156;2023-03-01T01:16:20;1.10;99.90
1626;DHT22;806;48.770;9.156;2023-03-01T01:18:49;1.00;99.90
1626;DHT22;806;48.770;9.156;2023-03-01T01:21:18;1.00;99.90
1626;DHT22;806;48.770;9.156;2023-03-01T01:23:46;1.00;99.90
1626;DHT22;806;48.770;9.156;2023-03-01T01:26:15;1.00;99.90
1626;DHT22;806;48.770;9.156;2023-03-01T01:28:43;1.00;99.90
1626;DHT22;806;48.770;9.156;2023-03-01T01:31:10;1.10;99.90
1626;DHT22;806;48.770;9.156;2023-03-01T01:33:37;1.10;99.90
1626;DHT22;806;48.770;9.156;2023-03-01T01:36:07;1.10;99.90
1626;DHT22;806;48.770;9.156;2023-03-01T01:38:34;1.20;99.90
1626;DHT22;806;48.770;9.156;2023-03-01T01:41:01;1.30;99.90
1626;DHT22;806;48.770;9.156;2023-03-01T01:43:32;1.30;99.90
1626;DHT22;806;48.770;9.156;2023-03-01T01:46:01;1.30;99.90
1626;DHT22;806;48.770;9.156;2023-03-01T01:48:37;1.20;99.90
1626;DHT22;806;48.770;9.156;2023-03-01T01:51:11;1.40;99.90
1626;DHT22;806;48.770;9.156;2023-03-01T01:53:40;1.30;99.90
1626;DHT22;806;48.770;9.156;2023-03-01T01:56:09;1.20;99.90
1626;DHT22;806;48.770;9.156;2023-03-01T01:58:38;1.20;99.90
1626;DHT22;806;48.770;9.156;2023-03-01T02:01:06;1.00;99.90
1626;DHT22;806;48.770;9.156;2023-03-01T02:03:38;0.90;99.90
1626;DHT22;806;48.770;9.156;2023-03-01T02:06:15;0.90;99.90
1626;DHT22;806;48.770;9.156;2023-03-01T02:08:44;1.10;99.90
1626;DHT22;806;48.770;9.156;2023-03-01T02:11:13;1.10;99.90
1626;DHT22;806;48.770;9.156;2023-03-01T02:13:41;1.20;99.90
1626;DHT22;806;48.770;9.156;2023-03-01T02:16:10;1.20;99.90
1626;DHT22;806;48.770;9.156;2023-03-01T02:18:38;1.10;99.90
1626;DHT22;806;48.770;9.156;2023-03-01T02:21:19;1.50;99.90
1626;DHT22;806;48.770;9.156;2023-03-01T02:23:50;1.50;99.90
1626;DHT22;806;48.770;9.156;2023-03-01T02:26:21;1.40;99.90
1626;DHT22;806;48.770;9.156;2023-03-01T02:28:52;1.30;99.90
1626;DHT22;806;48.770;9.156;2023-03-01T02:31:20;1.20;99.90
1626;DHT22;806;48.770;9.156;2023-03-01T02:34:06;1.10;99.90
1626;DHT22;806;48.770;9.156;2023-03-01T02:36:37;0.90;99.90
1626;DHT22;806;48.770;9.156;2023-03-01T02:39:06;1.10;99.90
1626;DHT22;806;48.770;9.156;2023-03-01T02:41:42;1.20;99.90
1626;DHT22;806;48.770;9.156;2023-03-01T02:44:11;1.10;99.90
1626;DHT22;806;48.770;9.156;2023-03-01T02:46:42;1.10;99.90
1626;DHT22;806;48.770;9.156;2023-03-01T02:49:20;1.10;99.90
1626;DHT22;806;48.770;9.156;2023-03-01T02:54:42;1.30;99.90
1626;DHT22;806;48.770;9.156;2023-03-01T02:57:10;1.20;99.90
1626;DHT22;806;48.770;9.156;2023-03-01T02:59:40;1.20;99.90
1626;DHT22;806;48.770;9.156;2023-03-01T03:02:19;1.20;99.90
1626;DHT22;806;48.770;9.156;2023-03-01T03:05:03;1.10;99.90
1626;DHT22;806;48.770;9.156;2023-03-01T03:07:32;1.20;99.90
1626;DHT22;806;48.770;9.156;2023-03-01T03:10:00;1.40;99.90
1626;DHT22;806;48.770;9.156;2023-03-01T03:12:27;1.50;99.90
1626;DHT22;806;48.770;9.156;2023-03-01T03:14:56;1.40;99.90
1626;DHT22;806;48.770;9.156;2023-03-01T03:17:23;1.30;99.90
1626;DHT22;806;48.770;9.156;2023-03-01T03:19:51;1.20;99.90
1626;DHT22;806;48.770;9.156;2023-03-01T03:22:18;1.20;99.90
1626;DHT22;806;48.770;9.156;2023-03-01T03:24:45;1.10;99.90
1626;DHT22;806;48.770;9.156;2023-03-01T03:27:12;1.20;99.90
1626;DHT22;806;48.770;9.156;2023-03-01T03:29:39;1.20;99.90
1626;DHT22;806;48.770;9.156;2023-03-01T03:32:07;1.20;99.90
1626;DHT22;806;48.770;9.156;2023-03-01T03:34:34;1.30;99.90
1626;DHT22;806;48.770;9.156;2023-03-01T03:37:02;1.30;99.90
1626;DHT22;806;48.770;9.156;2023-03-01T03:39:29;1.30;99.90
1626;DHT22;806;48.770;9.156;2023-03-01T03:42:01;1.20;99.90
1626;DHT22;806;48.770;9.156;2023-03-01T03:44:28;1.20;99.90
1626;DHT22;806;48.770;9.156;2023-03-01T03:46:55;1.20;99.90
1626;DHT22;806;48.770;9.156;2023-03-01T03:49:24;1.20;99.90
1626;DHT22;806;48.770;9.156;2023-03-01T03:51:51;1.20;99.90
1626;DHT22;806;48.770;9.156;2023-03-01T03:54:18;1.10;99.90
1626;DHT22;806;48.770;9.156;2023-03-01T03:56:45;1.00;99.90
1626;DHT22;806;48.770;9.156;2023-03-01T03:59:12;1.00;99.90
1626;DHT22;806;48.770;9.156;2023-03-01T04:01:39;1.00;99.90
1626;DHT22;806;48.770;9.156;2023-03-01T04:04:07;1.10;99.90
1626;DHT22;806;48.770;9.156;2023-03-01T04:06:35;1.20;99.90
1626;DHT22;806;48.770;9.156;2023-03-01T04:09:02;1.30;99.90
1626;DHT22;806;48.770;9.156;2023-03-01T04:11:29;1.50;99.90
1626;DHT22;806;48.770;9.156;2023-03-01T04:13:57;1.50;99.90
1626;DHT22;806;48.770;9.156;2023-03-01T04:16:25;1.50;99.90
1626;DHT22;806;48.770;9.156;2023-03-01T04:18:53;1.60;99.90
1626;DHT22;806;48.770;9.156;2023-03-01T04:21:20;1.40;99.90
1626;DHT22;806;48.770;9.156;2023-03-01T04:23:49;1.30;99.90
1626;DHT22;806;48.770;9.156;2023-03-01T04:26:18;1.30;99.90
1626;DHT22;806;48.770;9.156;2023-03-01T04:28:46;1.50;99.90
1626;DHT22;806;48.770;9.156;2023-03-01T04:31:16;1.60;99.90
1626;DHT22;806;48.770;9.156;2023-03-01T04:33:48;1.70;99.90
1626;DHT22;806;48.770;9.156;2023-03-01T04:36:17;1.60;99.90
1626;DHT22;806;48.770;9.156;2023-03-01T04:38:45;1.60;99.90
1626;DHT22;806;48.770;9.156;2023-03-01T04:41:16;1.60;99.90
1626;DHT22;806;48.770;9.156;2023-03-01T04:43:44;1.60;99.90
1626;DHT22;806;48.770;9.156;2023-03-01T04:46:12;1.90;99.90
1626;DHT22;806;48.770;9.156;2023-03-01T04:48:41;2.00;99.90
1626;DHT22;806;48.770;9.156;2023-03-01T04:51:08;1.90;99.90
1626;DHT22;806;48.770;9.156;2023-03-01T04:53:39;1.80;99.90
1626;DHT22;806;48.770;9.156;2023-03-01T04:56:06;1.80;99.90
1626;DHT22;806;48.770;9.156;2023-03-01T04:58:35;1.70;99.90
1626;DHT22;806;48.770;9.156;2023-03-01T05:01:08;1.60;99.90
1626;DHT22;806;48.770;9.156;2023-03-01T05:03:41;1.60;99.90
1626;DHT22;806;48.770;9.156;2023-03-01T05:06:08;1.40;99.90
1626;DHT22;806;48.770;9.156;2023-03-01T05:08:36;1.40;99.90
1626;DHT22;806;48.770;9.156;2023-03-01T05:11:04;1.60;99.90
1626;DHT22;806;48.770;9.156;2023-03-01T05:13:36;1.80;99.90
1626;DHT22;806;48.770;9.156;2023-03-01T05:16:05;2.00;99.90
1626;DHT22;806;48.770;9.156;2023-03-01T05:18:37;2.20;99.90
1626;DHT22;806;48.770;9.156;2023-03-01T05:21:06;2.20;99.90
1626;DHT22;806;48.770;9.156;2023-03-01T05:23:34;2.30;99.90
1626;DHT22;806;48.770;9.156;2023-03-01T05:26:03;2.30;99.90
1626;DHT22;806;48.770;9.156;2023-03-01T05:28:31;2.10;99.90
1626;DHT22;806;48.770;9.156;2023-03-01T05:31:00;2.10;99.90
1626;DHT22;806;48.770;9.156;2023-03-01T05:33:27;2.10;99.90
1626;DHT22;806;48.770;9.156;2023-03-01T05:35:54;2.20;99.90
1626;DHT22;806;48.770;9.156;2023-03-01T05:38:21;2.40;99.90
1626;DHT22;806;48.770;9.156;2023-03-01T05:40:49;2.60;99.90
1626;DHT22;806;48.770;9.156;2023-03-01T05:43:17;2.50;99.90
1626;DHT22;806;48.770;9.156;2023-03-01T05:45:44;2.30;99.90
1626;DHT22;806;48.770;9.156;2023-03-01T05:48:13;2.40;99.90
1626;DHT22;806;48.770;9.156;2023-03-01T05:50:41;2.60;99.90
1626;DHT22;806;48.770;9.156;2023-03-01T05:53:11;3.10;99.90
1626;DHT22;806;48.770;9.156;2023-03-01T05:55:39;3.70;99.90
1626;DHT22;806;48.770;9.156;2023-03-01T05:58:09;3.50;99.90
1626;DHT22;806;48.770;9.156;2023-03-01T06:00:36;3.40;99.90
1626;DHT22;806;48.770;9.156;2023-03-01T06:03:03;3.30;99.90
1626;DHT22;806;48.770;9.156;2023-03-01T06:05:32;3.40;99.90
1626;DHT22;806;48.770;9.156;2023-03-01T06:08:00;3.50;99.90
1626;DHT22;806;48.770;9.156;2023-03-01T06:10:27;3.20;99.90
1626;DHT22;806;48.770;9.156;2023-03-01T06:12:55;2.90;99.90
1626;DHT22;806;48.770;9.156;2023-03-01T06:15:22;2.60;99.90
1626;DHT22;806;48.770;9.156;2023-03-01T06:17:50;2.60;99.90
1626;DHT22;806;48.770;9.156;2023-03-01T06:20:19;2.30;99.90
1626;DHT22;806;48.770;9.156;2023-03-01T06:22:49;2.60;99.90
1626;DHT22;806;48.770;9.156;2023-03-01T06:25:18;2.70;99.90
1626;DHT22;806;48.770;9.156;2023-03-01T06:27:46;2.60;99.90
1626;DHT22;806;48.770;9.156;2023-03-01T06:30:15;2.60;99.90
1626;DHT22;806;48.770;9.156;2023-03-01T06:32:43;2.40;99.90
1626;DHT22;806;48.770;9.156;2023-03-01T06:35:12;2.00;99.90
1626;DHT22;806;48.770;9.156;2023-03-01T06:37:39;2.50;99.90
1626;DHT22;806;48.770;9.156;2023-03-01T06:40:09;2.90;99.90
1626;DHT22;806;48.770;9.156;2023-03-01T06:42:40;3.00;99.90
1626;DHT22;806;48.770;9.156;2023-03-01T06:45:09;2.60;99.90
1626;DHT22;806;48.770;9.156;2023-03-01T06:47:36;2.60;99.90
1626;DHT22;806;48.770;9.156;2023-03-01T06:50:04;2.70;99.90
1626;DHT22;806;48.770;9.156;2023-03-01T06:52:31;2.90;99.90
1626;DHT22;806;48.770;9.156;2023-03-01T06:54:59;3.20;99.90
1626;DHT22;806;48.770;9.156;2023-03-01T06:57:27;3.40;99.90
1626;DHT22;806;48.770;9.156;2023-03-01T06:59:55;3.40;99.90
1626;DHT22;806;48.770;9.156;2023-03-01T07:02:22;3.30;99.90
1626;DHT22;806;48.770;9.156;2023-03-01T07:04:50;3.20;99.90
1626;DHT22;806;48.770;9.156;2023-03-01T07:07:17;3.40;99.90
1626;DHT22;806;48.770;9.156;2023-03-01T07:09:45;3.20;99.90
1626;DHT22;806;48.770;9.156;2023-03-01T07:12:12;3.20;99.90
1626;DHT22;806;48.770;9.156;2023-03-01T07:14:40;3.40;99.90
1626;DHT22;806;48.770;9.156;2023-03-01T07:17:07;3.50;99.90
1626;DHT22;806;48.770;9.156;2023-03-01T07:19:35;3.20;99.90
1626;DHT22;806;48.770;9.156;2023-03-01T07:22:03;2.90;99.90
1626;DHT22;806;48.770;9.156;2023-03-01T07:24:33;2.90;99.90
1626;DHT22;806;48.770;9.156;2023-03-01T07:27:00;2.80;99.90
1626;DHT22;806;48.770;9.156;2023-03-01T07:29:27;2.60;99.90
1626;DHT22;806;48.770;9.156;2023-03-01T07:31:56;2.50;99.90
1626;DHT22;806;48.770;9.156;2023-03-01T07:34:24;2.70;99.90
1626;DHT22;806;48.770;9.156;2023-03-01T07:36:51;2.50;99.90
1626;DHT22;806;48.770;9.156;2023-03-01T07:39:19;2.30;99.90
1626;DHT22;806;48.770;9.156;2023-03-01T07:41:48;2.50;99.90
1626;DHT22;806;48.770;9.156;2023-03-01T07:44:15;2.50;99.90
1626;DHT22;806;48.770;9.156;2023-03-01T07:46:43;2.60;99.90
1626;DHT22;806;48.770;9.156;2023-03-01T07:49:12;2.50;99.90
1626;DHT22;806;48.770;9.156;2023-03-01T07:51:39;2.40;99.90
1626;DHT22;806;48.770;9.156;2023-03-01T07:54:06;2.40;99.90
1626;DHT22;806;48.770;9.156;2023-03-01T07:56:33;2.80;99.90
1626;DHT22;806;48.770;9.156;2023-03-01T07:59:00;2.90;99.90
1626;DHT22;806;48.770;9.156;2023-03-01T08:01:27;2.70;99.90
1626;DHT22;806;48.770;9.156;2023-03-01T08:03:54;2.80;99.90
1626;DHT22;806;48.770;9.156;2023-03-01T08:06:23;2.80;99.90
1626;DHT22;806;48.770;9.156;2023-03-01T08:08:50;2.60;99.90
1626;DHT22;806;48.770;9.156;2023-03-01T08:11:17;2.70;99.90
1626;DHT22;806;48.770;9.156;2023-03-01T08:13:47;2.50;99.90
1626;DHT22;806;48.770;9.156;2023-03-01T08:16:15;2.40;99.90
1626;DHT22;806;48.770;9.156;2023-03-01T08:18:43;2.40;99.90
1626;DHT22;806;48.770;9.156;2023-03-01T08:21:11;2.60;99.90
1626;DHT22;806;48.770;9.156;2023-03-01T08:23:41;2.60;99.90
1626;DHT22;806;48.770;9.156;2023-03-01T08:26:10;2.70;99.90
1626;DHT22;806;48.770;9.156;2023-03-01T08:28:38;2.60;99.90
1626;DHT22;806;48.770;9.156;2023-03-01T08:31:14;2.60;99.90
1626;DHT22;806;48.770;9.156;2023-03-01T08:33:41;2.50;99.90
1626;DHT22;806;48.770;9.156;2023-03-01T08:36:08;2.40;99.90
1626;DHT22;806;48.770;9.156;2023-03-01T08:38:35;2.40;99.90
1626;DHT22;806;48.770;9.156;2023-03-01T08:41:04;2.50;99.90
1626;DHT22;806;48.770;9.156;2023-03-01T08:43:31;2.60;99.90
1626;DHT22;806;48.770;9.156;2023-03-01T08:45:58;2.70;99.90
1626;DHT22;806;48.770;9.156;2023-03-01T08:48:27;2.70;99.90
1626;DHT22;806;48.770;9.156;2023-03-01T08:50:55;2.80;99.90
1626;DHT22;806;48.770;9.156;2023-03-01T08:53:22;2.80;99.90
1626;DHT22;806;48.770;9.156;2023-03-01T08:55:49;2.70;99.90
1626;DHT22;806;48.770;9.156;2023-03-01T08:58:19;3.30;99.90
1626;DHT22;806;48.770;9.156;2023-03-01T09:00:47;3.70;99.90
1626;DHT22;806;48.770;9.156;2023-03-01T09:03:16;3.90;99.90
1626;DHT22;806;48.770;9.156;2023-03-01T09:05:45;4.10;99.90
1626;DHT22;806;48.770;9.156;2023-03-01T09:08:15;3.90;99.90
1626;DHT22;806;48.770;9.156;2023-03-01T09:10:43;3.70;99.90
1626;DHT22;806;48.770;9.156;2023-03-01T09:13:12;3.60;99.90
1626;DHT22;806;48.770;9.156;2023-03-01T09:15:42;3.80;99.90
1626;DHT22;806;48.770;9.156;2023-03-01T09:18:10;3.70;99.90
1626;DHT22;806;48.770;9.156;2023-03-01T09:20:38;3.70;99.90
1626;DHT22;806;48.770;9.156;2023-03-01T09:23:06;3.80;99.90
1626;DHT22;806;48.770;9.156;2023-03-01T09:25:34;3.90;99.90
1626;DHT22;806;48.770;9.156;2023-03-01T09:28:03;3.80;99.90
1626;DHT22;806;48.770;9.156;2023-03-01T09:30:31;4.00;99.90
1626;DHT22;806;48.770;9.156;2023-03-01T09:33:01;4.10;99.90
1626;DHT22;806;48.770;9.156;2023-03-01T09:35:29;4.20;99.90
1626;DHT22;806;48.770;9.156;2023-03-01T09:37:57;4.20;99.90
1626;DHT22;806;48.770;9.156;2023-03-01T09:40:27;4.10;99.90
1626;DHT22;806;48.770;9.156;2023-03-01T09:43:00;4.10;99.90
1626;DHT22;806;48.770;9.156;2023-03-01T09:45:33;4.30;99.90
1626;DHT22;806;48.770;9.156;2023-03-01T09:48:08;4.40;99.90
1626;DHT22;806;48.770;9.156;2023-03-01T09:50:42;4.30;99.90
1626;DHT22;806;48.770;9.156;2023-03-01T09:53:16;4.40;99.90
1626;DHT22;806;48.770;9.156;2023-03-01T09:55:48;4.40;99.90
1626;DHT22;806;48.770;9.156;2023-03-01T09:58:34;4.50;99.90
1626;DHT22;806;48.770;9.156;2023-03-01T10:01:18;4.60;99.90
1626;DHT22;806;48.770;9.156;2023-03-01T10:04:02;4.70;99.90
1626;DHT22;806;48.770;9.156;2023-03-01T10:06:32;4.70;99.90
1626;DHT22;806;48.770;9.156;2023-03-01T10:09:04;4.80;99.90
1626;DHT22;806;48.770;9.156;2023-03-01T10:11:39;4.90;99.90
1626;DHT22;806;48.770;9.156;2023-03-01T10:14:20;5.00;99.90
1626;DHT22;806;48.770;9.156;2023-03-01T10:16:57;5.10;99.90
1626;DHT22;806;48.770;9.156;2023-03-01T10:19:32;5.40;99.90
1626;DHT22;806;48.770;9.156;2023-03-01T10:22:09;5.50;99.90
1626;DHT22;806;48.770;9.156;2023-03-01T10:24:40;5.70;99.90
1626;DHT22;806;48.770;9.156;2023-03-01T10:27:11;5.80;99.90
1626;DHT22;806;48.770;9.156;2023-03-01T10:29:48;5.70;99.90
1626;DHT22;806;48.770;9.156;2023-03-01T10:32:17;5.80;99.90
1626;DHT22;806;48.770;9.156;2023-03-01T10:34:48;6.00;99.90
1626;DHT22;806;48.770;9.156;2023-03-01T10:37:17;5.90;99.90
1626;DHT22;806;48.770;9.156;2023-03-01T10:40:01;5.90;99.90
1626;DHT22;806;48.770;9.156;2023-03-01T10:42:32;6.10;99.90
1626;DHT22;806;48.770;9.156;2023-03-01T10:45:16;6.30;99.90
1626;DHT22;806;48.770;9.156;2023-03-01T10:47:47;6.30;99.90
1626;DHT22;806;48.770;9.156;2023-03-01T10:50:32;6.70;99.90
1626;DHT22;806;48.770;9.156;2023-03-01T10:53:02;7.00;99.90
1626;DHT22;806;48.770;9.156;2023-03-01T10:55:33;7.30;99.90
1626;DHT22;806;48.770;9.156;2023-03-01T10:58:16;7.70;99.90
1626;DHT22;806;48.770;9.156;2023-03-01T11:00:50;8.00;99.90
1626;DHT22;806;48.770;9.156;2023-03-01T11:03:21;8.00;99.90
1626;DHT22;806;48.770;9.156;2023-03-01T11:06:01;7.90;99.90
1626;DHT22;806;48.770;9.156;2023-03-01T11:08:36;8.00;99.90
1626;DHT22;806;48.770;9.156;2023-03-01T11:11:09;8.10;99.90
1626;DHT22;806;48.770;9.156;2023-03-01T11:13:50;8.10;99.90
1626;DHT22;806;48.770;9.156;2023-03-01T11:16:25;8.30;99.90
1626;DHT22;806;48.770;9.156;2023-03-01T11:18:59;8.40;99.90
1626;DHT22;806;48.770;9.156;2023-03-01T11:21:33;8.90;99.90
1626;DHT22;806;48.770;9.156;2023-03-01T11:24:04;9.00;99.90
1626;DHT22;806;48.770;9.156;2023-03-01T11:26:38;8.70;99.90
1626;DHT22;806;48.770;9.156;2023-03-01T11:29:25;8.80;99.90
1626;DHT22;806;48.770;9.156;2023-03-01T11:31:57;8.70;99.90
1626;DHT22;806;48.770;9.156;2023-03-01T11:34:37;8.90;99.90
1626;DHT22;806;48.770;9.156;2023-03-01T11:37:15;9.00;99.90
1626;DHT22;806;48.770;9.156;2023-03-01T11:39:53;8.80;99.90
1626;DHT22;806;48.770;9.156;2023-03-01T11:42:31;8.80;99.90
1626;DHT22;806;48.770;9.156;2023-03-01T11:45:08;8.90;99.90
1626;DHT22;806;48.770;9.156;2023-03-01T11:48:05;9.10;99.90
1626;DHT22;806;48.770;9.156;2023-03-01T11:50:40;9.00;99.70
1626;DHT22;806;48.770;9.156;2023-03-01T11:53:32;9.00;99.50
1626;DHT22;806;48.770;9.156;2023-03-01T11:56:09;9.40;99.90
1626;DHT22;806;48.770;9.156;2023-03-01T11:58:51;9.80;98.80
1626;DHT22;806;48.770;9.156;2023-03-01T12:01:32;10.10;97.10
1626;DHT22;806;48.770;9.156;2023-03-01T12:04:27;10.30;96.20
1626;DHT22;806;48.770;9.156;2023-03-01T12:06:59;10.20;95.70
1626;DHT22;806;48.770;9.156;2023-03-01T12:09:38;10.00;94.90
1626;DHT22;806;48.770;9.156;2023-03-01T12:12:30;9.90;95.90
1626;DHT22;806;48.770;9.156;2023-03-01T12:15:25;9.80;95.60
1626;DHT22;806;48.770;9.156;2023-03-01T12:18:20;9.50;95.30
1626;DHT22;806;48.770;9.156;2023-03-01T12:20:58;9.50;95.70
1626;DHT22;806;48.770;9.156;2023-03-01T12:26:28;9.60;95.50
1626;DHT22;806;48.770;9.156;2023-03-01T12:29:16;9.80;95.10
1626;DHT22;806;48.770;9.156;2023-03-01T12:32:01;9.90;96.00
1626;DHT22;806;48.770;9.156;2023-03-01T12:37:52;10.20;93.20
1626;DHT22;806;48.770;9.156;2023-03-01T12:40:35;10.20;93.40
1626;DHT22;806;48.770;9.156;2023-03-01T12:43:22;10.20;92.30
1626;DHT22;806;48.770;9.156;2023-03-01T12:48:46;10.20;92.70
1626;DHT22;806;48.770;9.156;2023-03-01T12:51:24;10.10;92.20
1626;DHT22;806;48.770;9.156;2023-03-01T12:53:54;10.10;93.00
1626;DHT22;806;48.770;9.156;2023-03-01T12:56:24;10.10;92.90
1626;DHT22;806;48.770;9.156;2023-03-01T12:58:59;10.20;93.10
1626;DHT22;806;48.770;9.156;2023-03-01T13:01:48;10.10;92.90
1626;DHT22;806;48.770;9.156;2023-03-01T13:07:25;10.20;92.00
1626;DHT22;806;48.770;9.156;2023-03-01T13:10:02;9.90;92.40
1626;DHT22;806;48.770;9.156;2023-03-01T13:15:34;9.70;93.00
1626;DHT22;806;48.770;9.156;2023-03-01T13:18:04;9.60;93.20
1626;DHT22;806;48.770;9.156;2023-03-01T13:20:45;9.40;93.40
1626;DHT22;806;48.770;9.156;2023-03-01T13:23:27;9.30;94.20
1626;DHT22;806;48.770;9.156;2023-03-01T13:28:55;9.30;94.40
1626;DHT22;806;48.770;9.156;2023-03-01T13:34:51;9.50;94.30
1626;DHT22;806;48.770;9.156;2023-03-01T13:37:21;9.40;94.50
1626;DHT22;806;48.770;9.156;2023-03-01T13:39:48;9.50;94.60
1626;DHT22;806;48.770;9.156;2023-03-01T13:42:38;9.50;94.60
1626;DHT22;806;48.770;9.156;2023-03-01T13:45:19;9.30;94.90
1626;DHT22;806;48.770;9.156;2023-03-01T13:47:49;9.30;94.90
1626;DHT22;806;48.770;9.156;2023-03-01T13:50:21;9.40;95.00
1626;DHT22;806;48.770;9.156;2023-03-01T13:52:53;9.30;95.00
1626;DHT22;806;48.770;9.156;2023-03-01T13:55:27;9.10;94.70
1626;DHT22;806;48.770;9.156;2023-03-01T13:57:59;9.10;95.10
1626;DHT22;806;48.770;9.156;2023-03-01T14:00:32;9.00;95.30
1626;DHT22;806;48.770;9.156;2023-03-01T14:03:12;8.90;95.70
1626;DHT22;806;48.770;9.156;2023-03-01T14:05:42;8.90;95.80
1626;DHT22;806;48.770;9.156;2023-03-01T14:08:21;8.90;96.10
1626;DHT22;806;48.770;9.156;2023-03-01T14:11:04;8.90;96.00
1626;DHT22;806;48.770;9.156;2023-03-01T14:13:45;8.90;96.30
1626;DHT22;806;48.770;9.156;2023-03-01T14:16:24;8.90;95.90
1626;DHT22;806;48.770;9.156;2023-03-01T14:19:04;8.80;96.10
1626;DHT22;806;48.770;9.156;2023-03-01T14:21:36;8.80;96.60
1626;DHT22;806;48.770;9.156;2023-03-01T14:24:04;8.80;96.80
1626;DHT22;806;48.770;9.156;2023-03-01T14:26:32;8.70;96.70
1626;DHT22;806;48.770;9.156;2023-03-01T14:29:02;8.50;97.10
1626;DHT22;806;48.770;9.156;2023-03-01T14:31:35;8.50;97.70
1626;DHT22;806;48.770;9.156;2023-03-01T14:34:03;8.50;97.90
1626;DHT22;806;48.770;9.156;2023-03-01T14:36:33;8.40;97.90
1626;DHT22;806;48.770;9.156;2023-03-01T14:39:15;8.40;98.30
1626;DHT22;806;48.770;9.156;2023-03-01T14:41:42;8.30;98.60
1626;DHT22;806;48.770;9.156;2023-03-01T14:44:15;8.40;98.90
1626;DHT22;806;48.770;9.156;2023-03-01T14:46:45;8.40;98.80
1626;DHT22;806;48.770;9.156;2023-03-01T14:49:14;8.30;99.10
1626;DHT22;806;48.770;9.156;2023-03-01T14:51:45;8.10;99.00
1626;DHT22;806;48.770;9.156;2023-03-01T14:54:22;8.10;99.70
1626;DHT22;806;48.770;9.156;2023-03-01T14:56:51;8.10;99.80
1626;DHT22;806;48.770;9.156;2023-03-01T14:59:21;8.10;99.90
1626;DHT22;806;48.770;9.156;2023-03-01T15:01:48;8.10;99.90
1626;DHT22;806;48.770;9.156;2023-03-01T15:04:17;8.10;99.90
1626;DHT22;806;48.770;9.156;2023-03-01T15:06:45;8.20;99.90
1626;DHT22;806;48.770;9.156;2023-03-01T15:09:14;8.20;99.90
1626;DHT22;806;48.770;9.156;2023-03-01T15:11:44;8.10;99.90
1626;DHT22;806;48.770;9.156;2023-03-01T15:17:24;8.10;99.90
1626;DHT22;806;48.770;9.156;2023-03-01T15:19:53;8.10;99.90
1626;DHT22;806;48.770;9.156;2023-03-01T15:22:22;8.10;99.90
1626;DHT22;806;48.770;9.156;2023-03-01T15:24:50;8.00;99.90
1626;DHT22;806;48.770;9.156;2023-03-01T15:27:20;7.80;99.90
1626;DHT22;806;48.770;9.156;2023-03-01T15:29:50;7.80;99.90
1626;DHT22;806;48.770;9.156;2023-03-01T15:32:28;7.80;99.90
1626;DHT22;806;48.770;9.156;2023-03-01T15:34:56;7.80;99.90
1626;DHT22;806;48.770;9.156;2023-03-01T15:37:40;7.70;99.90
1626;DHT22;806;48.770;9.156;2023-03-01T15:40:19;7.60;99.90
1626;DHT22;806;48.770;9.156;2023-03-01T15:42:48;7.70;99.90
1626;DHT22;806;48.770;9.156;2023-03-01T15:45:22;7.70;99.90
1626;DHT22;806;48.770;9.156;2023-03-01T15:47:52;7.70;99.90
1626;DHT22;806;48.770;9.156;2023-03-01T15:50:22;7.70;99.90
1626;DHT22;806;48.770;9.156;2023-03-01T15:52:50;7.70;99.90
1626;DHT22;806;48.770;9.156;2023-03-01T15:55:20;7.60;99.90
1626;DHT22;806;48.770;9.156;2023-03-01T15:57:49;7.70;99.90
1626;DHT22;806;48.770;9.156;2023-03-01T16:00:17;7.60;99.90
1626;DHT22;806;48.770;9.156;2023-03-01T16:02:45;7.60;99.90
1626;DHT22;806;48.770;9.156;2023-03-01T16:05:20;7.50;99.90
1626;DHT22;806;48.770;9.156;2023-03-01T16:07:49;7.50;99.90
1626;DHT22;806;48.770;9.156;2023-03-01T16:10:16;7.40;99.90
1626;DHT22;806;48.770;9.156;2023-03-01T16:12:43;7.40;99.90
1626;DHT22;806;48.770;9.156;2023-03-01T16:15:17;7.50;99.90
1626;DHT22;806;48.770;9.156;2023-03-01T16:17:45;7.40;99.90
1626;DHT22;806;48.770;9.156;2023-03-01T16:20:12;7.40;99.90
1626;DHT22;806;48.770;9.156;2023-03-01T16:22:41;7.40;99.90
1626;DHT22;806;48.770;9.156;2023-03-01T16:25:09;7.40;99.90
1626;DHT22;806;48.770;9.156;2023-03-01T16:27:37;7.40;99.90
1626;DHT22;806;48.770;9.156;2023-03-01T16:30:08;7.40;99.90
1626;DHT22;806;48.770;9.156;2023-03-01T16:32:39;7.30;99.90
1626;DHT22;806;48.770;9.156;2023-03-01T16:35:07;7.30;99.90
1626;DHT22;806;48.770;9.156;2023-03-01T16:37:36;7.30;99.90
1626;DHT22;806;48.770;9.156;2023-03-01T16:40:06;7.30;99.90
1626;DHT22;806;48.770;9.156;2023-03-01T16:42:37;7.30;99.90
1626;DHT22;806;48.770;9.156;2023-03-01T16:45:05;7.20;99.90
1626;DHT22;806;48.770;9.156;2023-03-01T16:47:35;7.20;99.90
1626;DHT22;806;48.770;9.156;2023-03-01T16:50:04;7.20;99.90
1626;DHT22;806;48.770;9.156;2023-03-01T16:52:31;7.20;99.90
1626;DHT22;806;48.770;9.156;2023-03-01T16:55:00;7.10;99.90
1626;DHT22;806;48.770;9.156;2023-03-01T16:57:27;7.10;99.90
1626;DHT22;806;48.770;9.156;2023-03-01T16:59:54;7.00;99.90
1626;DHT22;806;48.770;9.156;2023-03-01T17:02:22;7.00;99.90
1626;DHT22;806;48.770;9.156;2023-03-01T17:04:52;7.00;99.90
1626;DHT22;806;48.770;9.156;2023-03-01T17:07:20;7.00;99.90
1626;DHT22;806;48.770;9.156;2023-03-01T17:09:48;7.00;99.90
1626;DHT22;806;48.770;9.156;2023-03-01T17:12:15;6.90;99.90
1626;DHT22;806;48.770;9.156;2023-03-01T17:14:43;6.90;99.90
1626;DHT22;806;48.770;9.156;2023-03-01T17:17:10;6.80;99.90
1626;DHT22;806;48.770;9.156;2023-03-01T17:19:37;6.70;99.90
1626;DHT22;806;48.770;9.156;2023-03-01T17:22:06;6.70;99.90
1626;DHT22;806;48.770;9.156;2023-03-01T17:24:35;6.50;99.90
1626;DHT22;806;48.770;9.156;2023-03-01T17:27:02;6.50;99.90